KPDC

Prairie Du Chien Municipal Airport

Prairie Du Chien, Wisconsin, USA
METAR KPDC 181535Z AUTO 19004KT 10SM CLR 09/M02 A3047 RMK AO2 T00861016
Observed Flight Rules
Oct-18 @ 15:35 UTC (21 minutes ago) Visual Flight Rules
Wind Visibility Clouds
190° at 4 knots 10 miles
  • Clear skies
Temperatures Readings
Current 9°C / 48°F
Dewpoint -2°C / 28°F
Humidity 46%
Altimeter 30.47" Hg
Pressure 1032 hPa
Elevation 201
METAR KPDC 181535Z AUTO 19004KT 10SM CLR 09/M02 A3047 RMK AO2 T00861016
Observed Flight Rules
Oct-18 @ 15:35 UTC
(21 minutes ago)
VFR
Wind Visibility
190° at 4 knots 10 miles
Clouds
  • Clear skies
Temperature Dewpoint
9°C / 48°F -2°C / 28°F
Humidity Altimeter Pressure
46% 30.47" Hg 1032 hPa